createdAt,value
2023-08-16T00:00:43.725Z,21.40
2023-08-16T00:01:43.662Z,21.40
2023-08-16T00:02:43.732Z,21.40
2023-08-16T00:03:43.705Z,21.39
2023-08-16T00:04:43.626Z,21.39
2023-08-16T00:05:43.618Z,21.41
2023-08-16T00:06:43.577Z,21.41
2023-08-16T00:07:43.593Z,21.41
2023-08-16T00:08:43.596Z,21.41
2023-08-16T00:09:43.567Z,21.44
2023-08-16T00:10:43.551Z,21.43
2023-08-16T00:11:43.525Z,21.46
2023-08-16T00:12:43.554Z,21.46
2023-08-16T00:13:43.517Z,21.49
2023-08-16T00:14:43.500Z,21.51
2023-08-16T00:15:43.489Z,21.53
2023-08-16T00:16:43.511Z,21.55
2023-08-16T00:17:43.475Z,21.58
2023-08-16T00:18:43.462Z,21.59
2023-08-16T00:19:43.457Z,21.59
2023-08-16T00:20:43.437Z,21.61
2023-08-16T00:21:43.401Z,21.61
2023-08-16T00:22:43.426Z,21.63
2023-08-16T00:23:43.380Z,21.63
2023-08-16T00:24:43.390Z,21.64
2023-08-16T00:25:43.362Z,21.65
2023-08-16T00:26:43.361Z,21.65
2023-08-16T00:27:43.335Z,21.66
2023-08-16T00:28:43.357Z,21.66
2023-08-16T00:29:43.306Z,21.68
2023-08-16T00:30:43.310Z,21.70
2023-08-16T00:31:43.287Z,21.71
2023-08-16T00:32:43.358Z,21.71
2023-08-16T00:33:43.298Z,21.73
2023-08-16T00:34:45.885Z,21.73
2023-08-16T00:35:43.249Z,21.72
2023-08-16T00:36:43.261Z,21.71
2023-08-16T00:37:43.232Z,21.70
2023-08-16T00:38:43.230Z,21.70
2023-08-16T00:39:43.192Z,21.67
2023-08-16T00:40:43.177Z,21.67
2023-08-16T00:41:43.192Z,21.64
2023-08-16T00:42:43.170Z,21.63
2023-08-16T00:43:43.175Z,21.63
2023-08-16T00:44:43.147Z,21.62
2023-08-16T00:45:43.136Z,21.61
2023-08-16T00:46:43.185Z,21.61
2023-08-16T00:47:43.143Z,21.62
2023-08-16T00:48:43.120Z,21.62
2023-08-16T00:49:43.075Z,21.61
2023-08-16T00:50:43.080Z,21.61
2023-08-16T00:51:43.050Z,21.59
2023-08-16T00:52:43.049Z,21.62
2023-08-16T00:53:43.061Z,21.62
2023-08-16T00:54:43.017Z,21.60
2023-08-16T00:55:43.018Z,21.61
2023-08-16T00:56:42.995Z,21.56
2023-08-16T00:57:42.988Z,21.54
2023-08-16T00:58:42.978Z,21.50
2023-08-16T00:59:42.968Z,21.51
2023-08-16T01:00:42.952Z,21.47
2023-08-16T01:01:42.989Z,21.46
2023-08-16T01:02:42.990Z,21.45
2023-08-16T01:03:42.972Z,21.41
2023-08-16T01:04:42.924Z,21.41
2023-08-16T01:05:42.891Z,21.39
2023-08-16T01:06:42.878Z,21.39
2023-08-16T01:07:42.869Z,21.38
2023-08-16T01:08:42.876Z,21.36
2023-08-16T01:09:42.868Z,21.35
2023-08-16T01:10:42.832Z,21.32
2023-08-16T01:11:42.825Z,21.32
2023-08-16T01:12:42.806Z,21.30
2023-08-16T01:13:42.805Z,21.30
2023-08-16T01:14:50.331Z,21.28
2023-08-16T01:15:42.788Z,21.26
2023-08-16T01:16:42.758Z,21.24
2023-08-16T01:17:42.844Z,21.23
2023-08-16T01:18:42.732Z,21.22
2023-08-16T01:19:42.731Z,21.22
2023-08-16T01:20:42.752Z,21.22
2023-08-16T01:21:42.701Z,21.23
2023-08-16T01:22:42.756Z,21.22
2023-08-16T01:23:42.682Z,21.21
2023-08-16T01:24:42.683Z,21.22
2023-08-16T01:25:42.702Z,21.23
2023-08-16T01:26:42.669Z,21.23
2023-08-16T01:27:42.650Z,21.26
2023-08-16T01:28:42.614Z,21.27
2023-08-16T01:29:42.597Z,21.29
2023-08-16T01:30:42.600Z,21.30
2023-08-16T01:31:42.611Z,21.31
2023-08-16T01:32:42.588Z,21.32
2023-08-16T01:33:42.577Z,21.35
2023-08-16T01:34:42.574Z,21.35
2023-08-16T01:35:42.556Z,21.38
2023-08-16T01:36:42.550Z,21.37
2023-08-16T01:37:42.499Z,21.41
2023-08-16T01:38:42.495Z,21.40
2023-08-16T01:39:42.483Z,21.40
2023-08-16T01:40:42.478Z,21.41
2023-08-16T01:41:42.485Z,21.41
2023-08-16T01:42:42.503Z,21.41
2023-08-16T01:43:42.433Z,21.39
2023-08-16T01:44:42.453Z,21.38
2023-08-16T01:45:42.512Z,21.40
2023-08-16T01:46:42.448Z,21.41
2023-08-16T01:47:42.447Z,21.41
2023-08-16T01:48:42.415Z,21.42
2023-08-16T01:49:42.392Z,21.42
2023-08-16T01:50:42.363Z,21.44
2023-08-16T01:51:42.351Z,21.44
2023-08-16T01:52:42.340Z,21.44
2023-08-16T01:53:42.333Z,21.46
2023-08-16T01:54:42.313Z,21.45
2023-08-16T01:55:42.290Z,21.45
2023-08-16T01:56:42.307Z,21.47
2023-08-16T01:57:42.305Z,21.47
2023-08-16T01:58:42.265Z,21.45
2023-08-16T01:59:42.276Z,21.45
2023-08-16T02:00:42.243Z,21.45
2023-08-16T02:01:42.287Z,21.46
2023-08-16T02:02:42.344Z,21.47
2023-08-16T02:03:42.271Z,21.45
2023-08-16T02:04:42.216Z,21.46
2023-08-16T02:05:42.176Z,21.45
2023-08-16T02:06:42.211Z,21.48
2023-08-16T02:07:42.156Z,21.46
2023-08-16T02:08:42.154Z,21.48
2023-08-16T02:09:42.140Z,21.45
2023-08-16T02:10:42.127Z,21.45
2023-08-16T02:11:42.103Z,21.46
2023-08-16T02:12:42.088Z,21.46
2023-08-16T02:13:42.102Z,21.46
2023-08-16T02:14:42.069Z,21.46
2023-08-16T02:15:42.080Z,21.46
2023-08-16T02:16:42.049Z,21.47
2023-08-16T02:17:42.068Z,21.46
2023-08-16T02:18:42.048Z,21.47
2023-08-16T02:19:42.015Z,21.48
2023-08-16T02:20:42.013Z,21.50
2023-08-16T02:21:41.976Z,21.49
2023-08-16T02:22:43.661Z,21.48
2023-08-16T02:23:41.983Z,21.49
2023-08-16T02:24:42.000Z,21.48
2023-08-16T02:25:41.932Z,21.50
2023-08-16T02:26:41.931Z,21.49
2023-08-16T02:27:41.922Z,21.48
2023-08-16T02:28:41.921Z,21.47
2023-08-16T02:29:41.888Z,21.49
2023-08-16T02:30:41.902Z,21.47
2023-08-16T02:31:41.969Z,21.48
2023-08-16T02:32:41.913Z,21.48
2023-08-16T02:33:41.860Z,21.48
2023-08-16T02:34:41.841Z,21.47
2023-08-16T02:35:41.858Z,21.47
2023-08-16T02:36:41.837Z,21.44
2023-08-16T02:37:41.809Z,21.43
2023-08-16T02:38:41.821Z,21.43
2023-08-16T02:39:41.766Z,21.42
2023-08-16T02:40:41.774Z,21.40
2023-08-16T02:41:41.751Z,21.39
2023-08-16T02:42:41.759Z,21.37
2023-08-16T02:43:41.746Z,21.35
2023-08-16T02:44:41.728Z,21.34
2023-08-16T02:45:41.705Z,21.32
2023-08-16T02:46:41.744Z,21.33
2023-08-16T02:47:41.716Z,21.32
2023-08-16T02:48:41.672Z,21.30
2023-08-16T02:49:41.678Z,21.30
2023-08-16T02:50:41.638Z,21.30
2023-08-16T02:51:41.644Z,21.29
2023-08-16T02:52:41.611Z,21.30
2023-08-16T02:53:41.605Z,21.30
2023-08-16T02:54:41.614Z,21.31
2023-08-16T02:55:41.584Z,21.32
2023-08-16T02:56:41.574Z,21.30
2023-08-16T02:57:41.585Z,21.30
2023-08-16T02:58:41.544Z,21.28
2023-08-16T02:59:41.575Z,21.28
2023-08-16T03:00:41.562Z,21.28
2023-08-16T03:01:41.504Z,21.29
2023-08-16T03:02:41.596Z,21.30
2023-08-16T03:03:41.484Z,21.29
2023-08-16T03:04:41.485Z,21.30
2023-08-16T03:05:41.474Z,21.30
2023-08-16T03:06:41.455Z,21.29
2023-08-16T03:07:41.448Z,21.27
2023-08-16T03:08:41.425Z,21.27
2023-08-16T03:09:41.429Z,21.26
2023-08-16T03:10:41.407Z,21.26
2023-08-16T03:11:41.396Z,21.26
2023-08-16T03:12:41.386Z,21.24
2023-08-16T03:13:41.364Z,21.24
2023-08-16T03:14:41.387Z,21.23
2023-08-16T03:15:41.338Z,21.23
2023-08-16T03:16:41.404Z,21.21
2023-08-16T03:17:41.345Z,21.23
2023-08-16T03:18:41.312Z,21.23
2023-08-16T03:19:41.300Z,21.23
2023-08-16T03:20:41.297Z,21.23
2023-08-16T03:21:41.269Z,21.22
2023-08-16T03:22:41.257Z,21.23
2023-08-16T03:23:41.249Z,21.22
2023-08-16T03:24:41.236Z,21.22
2023-08-16T03:25:41.233Z,21.24
2023-08-16T03:26:41.217Z,21.24
2023-08-16T03:27:41.203Z,21.22
2023-08-16T03:28:41.184Z,21.22
2023-08-16T03:29:41.187Z,21.24
2023-08-16T03:30:41.235Z,21.26
2023-08-16T03:31:41.152Z,21.26
2023-08-16T03:32:41.174Z,21.27
2023-08-16T03:33:41.161Z,21.29
2023-08-16T03:34:41.110Z,21.29
2023-08-16T03:35:41.121Z,21.31
2023-08-16T03:36:41.092Z,21.32
2023-08-16T03:37:41.099Z,21.35
2023-08-16T03:38:41.069Z,21.34
2023-08-16T03:39:41.076Z,21.35
2023-08-16T03:42:00.871Z,21.37
2023-08-16T03:42:06.184Z,21.40
2023-08-16T03:43:06.195Z,21.40
2023-08-16T03:44:06.148Z,21.42
2023-08-16T03:45:06.143Z,21.44
2023-08-16T03:46:06.200Z,21.46
2023-08-16T03:47:06.107Z,21.47
2023-08-16T03:48:06.133Z,21.49
2023-08-16T03:49:06.121Z,21.50
2023-08-16T03:50:06.105Z,21.51
2023-08-16T03:51:06.082Z,21.53
2023-08-16T03:52:06.067Z,21.53
2023-08-16T03:53:06.047Z,21.52
2023-08-16T03:54:06.032Z,21.53
2023-08-16T03:55:06.017Z,21.51
2023-08-16T03:56:06.051Z,21.52
2023-08-16T03:57:06.002Z,21.50
2023-08-16T03:58:06.017Z,21.51
2023-08-16T03:59:05.991Z,21.51
2023-08-16T04:00:05.963Z,21.51
2023-08-16T04:01:05.976Z,21.51
2023-08-16T04:02:05.969Z,21.52
2023-08-16T04:03:06.012Z,21.51
2023-08-16T04:04:05.914Z,21.53
2023-08-16T04:05:05.903Z,21.55
2023-08-16T04:06:05.898Z,21.56
2023-08-16T04:07:05.876Z,21.56
2023-08-16T04:08:05.870Z,21.56
2023-08-16T04:09:05.857Z,21.57
2023-08-16T04:10:05.854Z,21.58
2023-08-16T04:11:05.853Z,21.58
2023-08-16T04:12:05.836Z,21.58
2023-08-16T04:13:05.803Z,21.60
2023-08-16T04:14:05.819Z,21.60
2023-08-16T04:15:05.798Z,21.60
2023-08-16T04:16:05.828Z,21.62
2023-08-16T04:17:05.778Z,21.62
2023-08-16T04:18:05.769Z,21.64
2023-08-16T04:19:05.733Z,21.64
2023-08-16T04:20:05.720Z,21.64
2023-08-16T04:21:05.749Z,21.63
2023-08-16T04:22:05.703Z,21.67
2023-08-16T04:23:05.693Z,21.65
2023-08-16T04:24:05.695Z,21.65
2023-08-16T04:25:05.700Z,21.66
2023-08-16T04:26:05.668Z,21.65
2023-08-16T04:27:05.653Z,21.67
2023-08-16T04:28:05.628Z,21.68
2023-08-16T04:29:05.641Z,21.68
2023-08-16T04:30:05.616Z,21.69
2023-08-16T04:31:05.617Z,21.69
2023-08-16T04:32:05.723Z,21.70
2023-08-16T04:33:05.604Z,21.69
2023-08-16T04:34:05.554Z,21.69
2023-08-16T04:35:05.553Z,21.71
2023-08-16T04:36:05.588Z,21.71
2023-08-16T04:37:05.593Z,21.72
2023-08-16T04:38:05.505Z,21.72
2023-08-16T04:39:05.535Z,21.74
2023-08-16T04:40:05.480Z,21.75
2023-08-16T04:41:05.465Z,21.78
2023-08-16T04:42:05.519Z,21.80
2023-08-16T04:43:05.441Z,21.82
2023-08-16T04:44:05.457Z,21.82
2023-08-16T04:45:05.464Z,21.86
2023-08-16T04:46:05.458Z,21.87
2023-08-16T04:47:05.408Z,21.88
2023-08-16T04:48:05.432Z,21.92
2023-08-16T04:49:05.378Z,21.91
2023-08-16T04:50:05.369Z,21.94
2023-08-16T04:51:05.358Z,21.95
2023-08-16T04:52:05.371Z,21.98
2023-08-16T04:53:05.377Z,22.00
2023-08-16T04:54:05.340Z,22.01
2023-08-16T04:55:05.305Z,22.04
2023-08-16T04:56:05.306Z,22.07
2023-08-16T04:57:05.286Z,22.10
2023-08-16T04:58:05.272Z,22.13
2023-08-16T04:59:05.264Z,22.15
2023-08-16T05:00:05.255Z,22.18
2023-08-16T05:01:05.287Z,22.20
2023-08-16T05:02:05.246Z,22.22
2023-08-16T05:03:05.284Z,22.25
2023-08-16T05:04:05.208Z,22.25
2023-08-16T05:05:05.236Z,22.27
2023-08-16T05:06:05.190Z,22.29
2023-08-16T05:07:05.198Z,22.31
2023-08-16T05:08:05.160Z,22.32
2023-08-16T05:09:05.152Z,22.33
2023-08-16T05:10:05.157Z,22.36
2023-08-16T05:11:05.128Z,22.38
2023-08-16T05:12:05.113Z,22.39
2023-08-16T05:13:05.105Z,22.44
2023-08-16T05:14:05.086Z,22.49
2023-08-16T05:15:05.075Z,22.53
2023-08-16T05:16:05.110Z,22.55
2023-08-16T05:17:05.062Z,22.59
2023-08-16T05:18:05.095Z,22.64
2023-08-16T05:19:05.029Z,22.67
2023-08-16T05:20:05.044Z,22.71
2023-08-16T05:21:05.009Z,22.73
2023-08-16T05:22:05.007Z,22.78
2023-08-16T05:23:05.017Z,22.80
2023-08-16T05:24:04.998Z,22.82
2023-08-16T05:25:04.975Z,22.82
2023-08-16T05:26:04.997Z,22.85
2023-08-16T05:27:04.950Z,22.88
2023-08-16T05:28:04.919Z,22.91
2023-08-16T05:29:04.912Z,22.95
2023-08-16T05:30:04.916Z,23.01
2023-08-16T05:31:04.889Z,23.08
2023-08-16T05:32:05.001Z,23.13
2023-08-16T05:33:04.976Z,23.21
2023-08-16T05:34:04.860Z,23.25
2023-08-16T05:35:04.853Z,23.30
2023-08-16T05:36:04.837Z,23.35
2023-08-16T05:37:04.833Z,23.40
2023-08-16T05:38:04.817Z,23.43
2023-08-16T05:39:04.793Z,23.47
2023-08-16T05:40:04.805Z,23.54
2023-08-16T05:41:04.777Z,23.57
2023-08-16T05:42:04.785Z,23.59
2023-08-16T05:43:04.775Z,23.60
2023-08-16T05:44:04.744Z,23.60
2023-08-16T05:45:04.738Z,23.61
2023-08-16T05:46:04.736Z,23.62
2023-08-16T05:47:04.742Z,23.61
2023-08-16T05:48:04.734Z,23.65
2023-08-16T05:49:04.701Z,23.68
2023-08-16T05:50:04.693Z,23.72
2023-08-16T05:51:04.662Z,23.74
2023-08-16T05:52:04.681Z,23.74
2023-08-16T05:53:04.638Z,23.77
2023-08-16T05:54:04.653Z,23.78
2023-08-16T05:55:04.624Z,23.79
2023-08-16T05:56:04.625Z,23.79
2023-08-16T05:57:04.620Z,23.79
2023-08-16T05:58:04.588Z,23.79
2023-08-16T05:59:04.569Z,23.79
2023-08-16T06:00:04.581Z,23.80
2023-08-16T06:01:04.618Z,23.81
2023-08-16T06:02:04.571Z,23.81
2023-08-16T06:03:04.615Z,23.79
2023-08-16T06:04:04.543Z,23.80
2023-08-16T06:05:04.501Z,23.75
2023-08-16T06:06:04.497Z,23.69
2023-08-16T06:07:04.500Z,23.64
2023-08-16T06:08:04.486Z,23.62
2023-08-16T06:09:04.464Z,23.59
2023-08-16T06:10:04.503Z,23.61
2023-08-16T06:11:04.436Z,23.63
2023-08-16T06:12:04.476Z,23.63
2023-08-16T06:13:04.428Z,23.69
2023-08-16T06:14:04.409Z,23.79
2023-08-16T06:15:04.402Z,23.98
2023-08-16T06:16:04.403Z,24.19
2023-08-16T06:17:04.400Z,24.31
2023-08-16T06:18:04.376Z,24.59
2023-08-16T06:19:04.363Z,24.76
2023-08-16T06:20:04.348Z,24.94
2023-08-16T06:21:04.355Z,25.05
2023-08-16T06:22:04.347Z,25.11
2023-08-16T06:23:04.324Z,25.02
2023-08-16T06:24:04.319Z,24.96
2023-08-16T06:25:04.304Z,24.91
2023-08-16T06:26:04.276Z,24.96
2023-08-16T06:27:04.297Z,25.02
2023-08-16T06:28:04.274Z,25.02
2023-08-16T06:29:04.242Z,25.00
2023-08-16T06:30:04.229Z,24.99
2023-08-16T06:31:04.312Z,24.99
2023-08-16T06:32:04.242Z,24.96
2023-08-16T06:33:04.246Z,24.95
2023-08-16T06:34:04.577Z,24.97
2023-08-16T06:35:04.176Z,25.04
2023-08-16T06:36:04.169Z,25.18
2023-08-16T06:37:04.157Z,25.27
2023-08-16T06:38:04.147Z,25.41
2023-08-16T06:39:04.128Z,25.47
2023-08-16T06:40:04.119Z,25.48
2023-08-16T06:41:04.105Z,25.45
2023-08-16T06:42:04.108Z,25.41
2023-08-16T06:43:06.529Z,25.48
2023-08-16T06:44:04.073Z,25.47
2023-08-16T06:45:04.065Z,25.42
2023-08-16T06:46:04.076Z,25.44
2023-08-16T06:47:04.079Z,25.49
2023-08-16T06:48:04.068Z,25.50
2023-08-16T06:49:04.023Z,25.52
2023-08-16T06:50:04.056Z,25.58
2023-08-16T06:51:04.128Z,25.65
2023-08-16T06:52:04.022Z,25.77
2023-08-16T06:53:04.008Z,25.78
2023-08-16T06:54:03.987Z,25.75
2023-08-16T06:55:03.946Z,25.68
2023-08-16T06:56:03.943Z,25.63
2023-08-16T06:57:03.944Z,25.70
2023-08-16T06:58:03.922Z,25.78
2023-08-16T06:59:03.899Z,25.74
2023-08-16T07:00:03.910Z,25.70
2023-08-16T07:01:03.949Z,25.62
2023-08-16T07:02:03.996Z,25.58
2023-08-16T07:03:04.075Z,25.55
2023-08-16T07:04:04.133Z,25.55
2023-08-16T07:05:03.882Z,25.55
2023-08-16T07:06:03.861Z,25.56
2023-08-16T07:07:03.956Z,25.55
2023-08-16T07:08:03.815Z,25.55
2023-08-16T07:09:03.869Z,25.53
2023-08-16T07:10:03.810Z,25.55
2023-08-16T07:11:03.783Z,25.56
2023-08-16T07:12:03.825Z,25.62
2023-08-16T07:13:03.763Z,25.80
2023-08-16T07:14:03.754Z,25.92
2023-08-16T07:15:11.258Z,26.10
2023-08-16T07:16:03.771Z,26.31
2023-08-16T07:17:03.734Z,26.53
2023-08-16T07:18:03.796Z,26.76
2023-08-16T07:19:03.685Z,26.94
2023-08-16T07:20:03.689Z,26.97
2023-08-16T07:21:03.667Z,27.04
2023-08-16T07:22:03.675Z,27.11
2023-08-16T07:23:03.721Z,27.16
2023-08-16T07:24:03.627Z,27.20
2023-08-16T07:25:03.641Z,27.24
2023-08-16T07:26:03.624Z,27.30
2023-08-16T07:27:03.640Z,27.35
2023-08-16T07:28:03.583Z,27.44
2023-08-16T07:29:03.592Z,27.56
2023-08-16T07:30:04.141Z,27.64
2023-08-16T07:31:03.549Z,27.72
2023-08-16T07:32:03.592Z,27.71
2023-08-16T07:33:03.555Z,27.60
2023-08-16T07:34:03.512Z,27.51
2023-08-16T07:35:03.510Z,27.42
2023-08-16T07:36:03.503Z,27.38
2023-08-16T07:37:03.513Z,27.35
2023-08-16T07:38:03.493Z,27.34
2023-08-16T07:39:03.512Z,27.37
2023-08-16T07:40:03.463Z,27.37
2023-08-16T07:41:03.449Z,27.44
2023-08-16T07:42:03.458Z,27.51
2023-08-16T07:43:03.423Z,27.68
2023-08-16T07:44:03.412Z,28.03
2023-08-16T07:45:03.417Z,28.33
2023-08-16T07:46:03.429Z,28.51
2023-08-16T07:47:03.414Z,28.51
2023-08-16T07:48:03.393Z,28.39
2023-08-16T07:49:03.359Z,28.28
2023-08-16T07:50:03.358Z,28.18
2023-08-16T07:51:03.338Z,28.10
2023-08-16T07:52:03.462Z,28.04
2023-08-16T07:53:03.390Z,28.01
2023-08-16T07:54:03.313Z,27.99
2023-08-16T07:55:03.313Z,27.94
2023-08-16T07:56:03.273Z,27.94
2023-08-16T07:57:03.298Z,27.94
2023-08-16T07:58:03.255Z,27.94
2023-08-16T07:59:03.248Z,27.94
2023-08-16T08:00:03.246Z,27.94
2023-08-16T08:01:03.321Z,27.97
2023-08-16T08:02:03.250Z,28.17
2023-08-16T08:03:03.484Z,28.22
2023-08-16T08:04:03.217Z,28.30
2023-08-16T08:05:03.227Z,28.38
2023-08-16T08:06:03.188Z,28.47
2023-08-16T08:07:03.194Z,28.78
2023-08-16T08:08:03.156Z,28.95
2023-08-16T08:09:03.174Z,29.33
2023-08-16T08:10:03.157Z,29.73
2023-08-16T08:11:03.122Z,29.90
2023-08-16T08:12:03.132Z,30.10
2023-08-16T08:13:03.104Z,30.31
2023-08-16T08:14:03.096Z,30.41
2023-08-16T08:15:03.098Z,30.69
2023-08-16T08:16:03.195Z,31.03
2023-08-16T08:17:03.089Z,31.30
2023-08-16T08:18:03.114Z,31.30
2023-08-16T08:19:03.044Z,31.11
2023-08-16T08:20:03.023Z,30.86
2023-08-16T08:21:03.037Z,30.58
2023-08-16T08:22:03.001Z,30.31
2023-08-16T08:23:03.039Z,30.13
2023-08-16T08:24:03.000Z,29.96
2023-08-16T08:25:02.992Z,29.89
2023-08-16T08:26:02.950Z,29.97
2023-08-16T08:27:02.945Z,30.07
2023-08-16T08:28:02.992Z,30.13
2023-08-16T08:29:02.939Z,30.13
2023-08-16T08:30:02.943Z,30.09
2023-08-16T08:31:02.916Z,30.04
2023-08-16T08:32:02.923Z,30.00
2023-08-16T08:33:02.956Z,30.09
2023-08-16T08:34:02.877Z,30.17
2023-08-16T08:35:02.846Z,30.26
2023-08-16T08:36:02.854Z,30.28
2023-08-16T08:37:02.831Z,30.23
2023-08-16T08:38:02.831Z,30.18
2023-08-16T08:39:02.903Z,30.10
2023-08-16T08:40:02.808Z,30.05
2023-08-16T08:41:02.790Z,30.06
2023-08-16T08:42:02.765Z,30.00
2023-08-16T08:43:02.803Z,29.82
2023-08-16T08:44:02.765Z,29.58
2023-08-16T08:45:02.759Z,29.46
2023-08-16T08:46:02.766Z,29.66
2023-08-16T08:47:07.164Z,29.64
2023-08-16T08:48:02.832Z,29.84
2023-08-16T08:49:02.735Z,30.02
2023-08-16T08:50:02.681Z,30.09
2023-08-16T08:51:02.667Z,30.34
2023-08-16T08:52:02.683Z,30.94
2023-08-16T08:53:02.692Z,31.45
2023-08-16T08:54:02.637Z,31.74
2023-08-16T08:55:02.617Z,31.98
2023-08-16T08:56:02.603Z,32.16
2023-08-16T08:57:02.615Z,32.07
2023-08-16T08:58:02.602Z,32.05
2023-08-16T08:59:14.204Z,32.03
2023-08-16T09:00:02.564Z,32.07
2023-08-16T09:01:02.601Z,32.21
2023-08-16T09:02:02.547Z,32.10
2023-08-16T09:03:02.599Z,32.04
2023-08-16T09:04:02.587Z,31.98
2023-08-16T09:05:02.513Z,31.73
2023-08-16T09:06:02.501Z,31.44
2023-08-16T09:07:02.490Z,31.20
2023-08-16T09:08:02.512Z,31.24
2023-08-16T09:09:02.477Z,31.67
2023-08-16T09:10:02.494Z,32.00
2023-08-16T09:11:02.441Z,32.20
2023-08-16T09:12:02.434Z,32.17
2023-08-16T09:13:02.442Z,32.22
2023-08-16T09:14:02.423Z,32.48
2023-08-16T09:15:02.427Z,32.56
2023-08-16T09:16:02.425Z,32.80
2023-08-16T09:17:02.388Z,33.09
2023-08-16T09:18:02.435Z,33.38
2023-08-16T09:19:02.369Z,33.72
2023-08-16T09:20:02.353Z,33.81
2023-08-16T09:21:02.345Z,33.81
2023-08-16T09:22:02.327Z,34.07
2023-08-16T09:23:02.393Z,34.28
2023-08-16T09:24:02.311Z,34.31
2023-08-16T09:25:02.293Z,34.46
2023-08-16T09:26:02.288Z,34.58
2023-08-16T09:27:02.295Z,34.73
2023-08-16T09:28:02.296Z,34.82
2023-08-16T09:29:02.257Z,34.66
2023-08-16T09:30:02.288Z,34.68
2023-08-16T09:31:02.316Z,34.78
2023-08-16T09:32:02.215Z,34.69
2023-08-16T09:33:02.331Z,34.56
2023-08-16T09:34:02.239Z,34.39
2023-08-16T09:35:03.706Z,34.36
2023-08-16T09:36:02.168Z,34.26
2023-08-16T09:37:02.185Z,34.35
2023-08-16T09:38:16.653Z,34.37
2023-08-16T09:39:02.303Z,34.20
2023-08-16T09:40:02.124Z,33.97
2023-08-16T09:41:02.122Z,33.78
2023-08-16T09:42:02.114Z,33.51
2023-08-16T09:43:02.167Z,33.36
2023-08-16T09:44:02.089Z,33.34
2023-08-16T09:45:02.213Z,33.18
2023-08-16T09:46:02.158Z,33.13
2023-08-16T09:47:04.464Z,32.90
2023-08-16T09:48:02.499Z,32.75
2023-08-16T09:50:02.040Z,32.49
2023-08-16T09:51:09.874Z,32.49
2023-08-16T09:53:17.174Z,32.59
2023-08-16T09:54:02.034Z,32.80
2023-08-16T09:55:01.973Z,33.03
2023-08-16T09:56:02.401Z,33.15
2023-08-16T09:58:01.962Z,33.44
2023-08-16T09:59:02.359Z,33.57
2023-08-16T10:00:01.914Z,33.62
2023-08-16T10:03:01.954Z,34.16
2023-08-16T10:05:02.026Z,33.85
2023-08-16T10:06:01.886Z,33.98
2023-08-16T10:08:01.843Z,34.50
2023-08-16T10:09:01.815Z,34.43
2023-08-16T10:10:01.828Z,34.14
2023-08-16T10:11:01.824Z,33.84
2023-08-16T10:12:01.780Z,33.59
2023-08-16T10:13:01.769Z,33.44
2023-08-16T10:14:01.759Z,33.45
2023-08-16T10:15:01.776Z,33.51
2023-08-16T10:16:01.894Z,33.51
2023-08-16T10:17:01.749Z,33.53
2023-08-16T10:18:01.792Z,33.52
2023-08-16T10:19:01.705Z,33.49
2023-08-16T10:20:01.739Z,33.37
2023-08-16T10:21:01.723Z,33.25
2023-08-16T10:22:01.666Z,33.09
2023-08-16T10:23:01.669Z,32.91
2023-08-16T10:24:01.652Z,32.92
2023-08-16T10:25:01.635Z,33.01
2023-08-16T10:26:01.678Z,33.30
2023-08-16T10:27:01.686Z,33.65
2023-08-16T10:28:01.604Z,33.92
2023-08-16T10:29:01.593Z,34.41
2023-08-16T10:31:13.821Z,35.56
2023-08-16T10:32:01.580Z,35.79
2023-08-16T10:33:01.631Z,35.71
2023-08-16T10:34:01.546Z,35.36
2023-08-16T10:35:01.536Z,35.24
2023-08-16T10:36:01.514Z,35.32
2023-08-16T10:37:01.509Z,35.23
2023-08-16T10:38:01.534Z,35.18
2023-08-16T10:39:01.506Z,35.09
2023-08-16T10:42:01.456Z,35.18
2023-08-16T10:43:01.486Z,35.23
2023-08-16T10:44:01.467Z,35.28
2023-08-16T10:45:01.455Z,35.39
2023-08-16T10:46:01.474Z,35.47
2023-08-16T10:47:01.414Z,35.46
2023-08-16T10:48:01.503Z,35.42
2023-08-16T10:49:02.413Z,35.37
2023-08-16T10:50:01.380Z,35.36
2023-08-16T10:51:01.370Z,35.43
2023-08-16T10:52:01.351Z,35.47
2023-08-16T10:53:01.509Z,35.44
2023-08-16T10:54:01.371Z,35.38
2023-08-16T10:55:01.334Z,35.31
2023-08-16T10:56:01.313Z,35.26
2023-08-16T10:57:01.312Z,35.21
2023-08-16T10:58:01.286Z,35.18
2023-08-16T10:59:01.277Z,35.18
2023-08-16T11:00:01.292Z,35.12
2023-08-16T11:01:01.262Z,35.09
2023-08-16T11:02:01.296Z,35.07
2023-08-16T11:03:01.296Z,35.01
2023-08-16T11:04:01.246Z,34.98
2023-08-16T11:05:01.247Z,34.97
2023-08-16T11:06:01.209Z,34.99
2023-08-16T11:07:03.682Z,35.00
2023-08-16T11:08:01.176Z,34.93
2023-08-16T11:09:01.178Z,34.62
2023-08-16T11:10:01.206Z,34.18
2023-08-16T11:11:01.225Z,33.98
2023-08-16T11:12:01.145Z,33.86
2023-08-16T11:13:01.145Z,33.87
2023-08-16T11:14:01.125Z,33.89
2023-08-16T11:15:01.111Z,33.92
2023-08-16T11:16:01.161Z,33.96
2023-08-16T11:17:01.153Z,33.86
2023-08-16T11:18:08.927Z,33.80
2023-08-16T11:19:17.824Z,33.79
2023-08-16T11:20:01.144Z,33.95
2023-08-16T11:21:01.060Z,33.99
2023-08-16T11:22:01.033Z,34.02
2023-08-16T11:23:01.041Z,34.02
2023-08-16T11:24:01.014Z,33.99
2023-08-16T11:25:01.016Z,33.98
2023-08-16T11:26:01.012Z,33.93
2023-08-16T11:27:00.984Z,33.93
2023-08-16T11:28:01.006Z,33.97
2023-08-16T11:29:00.960Z,34.12
2023-08-16T11:30:01.001Z,34.28
2023-08-16T11:31:00.946Z,34.38
2023-08-16T11:32:00.983Z,34.42
2023-08-16T11:33:00.968Z,34.28
2023-08-16T11:34:00.962Z,34.08
2023-08-16T11:35:00.955Z,34.10
2023-08-16T11:36:00.895Z,33.95
2023-08-16T11:37:00.898Z,33.81
2023-08-16T11:38:00.876Z,33.86
2023-08-16T11:39:00.860Z,33.96
2023-08-16T11:40:00.892Z,34.03
2023-08-16T11:41:00.854Z,34.06
2023-08-16T11:42:00.825Z,34.10
2023-08-16T11:43:00.842Z,34.09
2023-08-16T11:44:01.529Z,34.07
2023-08-16T11:45:00.809Z,34.00
2023-08-16T11:46:00.863Z,34.12
2023-08-16T11:47:00.786Z,34.23
2023-08-16T11:48:00.833Z,34.33
2023-08-16T11:49:00.780Z,34.40
2023-08-16T11:50:03.201Z,34.52
2023-08-16T11:51:00.807Z,34.60
2023-08-16T11:52:00.748Z,34.65
2023-08-16T11:53:00.715Z,34.64
2023-08-16T11:54:00.702Z,34.66
2023-08-16T11:55:00.704Z,34.61
2023-08-16T11:56:00.759Z,34.53
2023-08-16T11:57:00.671Z,34.42
2023-08-16T11:58:00.659Z,34.26
2023-08-16T11:59:00.650Z,34.15
2023-08-16T12:00:00.637Z,34.04
2023-08-16T12:01:00.697Z,33.93
2023-08-16T12:02:00.633Z,33.83
2023-08-16T12:03:00.681Z,33.75
2023-08-16T12:04:00.778Z,33.69
2023-08-16T12:05:00.606Z,33.63
2023-08-16T12:06:00.576Z,33.63
2023-08-16T12:07:00.617Z,33.68
2023-08-16T12:08:00.566Z,33.74
2023-08-16T12:09:00.553Z,33.77
2023-08-16T12:10:00.529Z,33.78
2023-08-16T12:11:00.511Z,33.81
2023-08-16T12:12:00.523Z,33.85
2023-08-16T12:13:00.533Z,33.90
2023-08-16T12:14:00.478Z,33.92
2023-08-16T12:15:00.514Z,34.00
2023-08-16T12:16:00.509Z,34.07
2023-08-16T12:17:00.453Z,34.11
2023-08-16T12:18:00.478Z,34.15
2023-08-16T12:19:00.497Z,34.22
2023-08-16T12:20:00.452Z,34.36
2023-08-16T12:21:00.452Z,34.52
2023-08-16T12:22:00.407Z,34.68
2023-08-16T12:23:00.387Z,34.71
2023-08-16T12:24:00.412Z,34.80
2023-08-16T12:25:00.373Z,34.90
2023-08-16T12:26:00.361Z,35.02
2023-08-16T12:27:00.343Z,35.08
2023-08-16T12:28:00.336Z,35.12
2023-08-16T12:29:00.317Z,35.10
2023-08-16T12:30:00.330Z,35.02
2023-08-16T12:31:00.313Z,34.94
2023-08-16T12:32:00.297Z,35.04
2023-08-16T12:33:00.293Z,35.19
2023-08-16T12:34:00.297Z,35.30
2023-08-16T12:35:01.233Z,35.57
2023-08-16T12:36:00.256Z,35.66
2023-08-16T12:37:00.237Z,35.73
2023-08-16T12:38:00.384Z,35.79
2023-08-16T12:39:00.217Z,35.88
2023-08-16T12:40:00.216Z,35.97
2023-08-16T12:41:00.210Z,36.06
2023-08-16T12:43:00.167Z,36.13
2023-08-16T12:44:00.156Z,36.07
2023-08-16T12:45:00.188Z,36.05
2023-08-16T12:46:00.216Z,36.10
2023-08-16T12:47:00.143Z,36.26
2023-08-16T12:48:00.161Z,36.40
2023-08-16T12:49:00.174Z,36.49
2023-08-16T12:50:00.155Z,36.55
2023-08-16T12:52:00.078Z,36.70
2023-08-16T12:53:00.637Z,36.75
2023-08-16T12:54:00.051Z,36.86
2023-08-16T12:55:00.062Z,36.93
2023-08-16T12:56:00.053Z,36.92
2023-08-16T12:57:06.725Z,36.90
2023-08-16T12:58:03.188Z,36.88
2023-08-16T12:59:00.015Z,36.84
2023-08-16T13:00:12.497Z,36.84
2023-08-16T13:01:06.287Z,36.83
2023-08-16T13:02:03.188Z,36.81
2023-08-16T13:03:09.405Z,36.85
2023-08-16T13:04:01.332Z,36.90
2023-08-16T13:05:10.024Z,36.91